Elk Grove Village, Illinois
Current Conditions -  °F | °C
As of 7:51 AM on Wednesday 22 Oct 2014 (Local Time) from KORD Reporting Station
Few Clouds Few Clouds  
Wind Chill: 39°   Ceiling: Unl
Heat Index: 43°   Visibility: 10mi
Dew Point: 39°   Wind: 6mph
Humidity: 86%   Direction: 340°NNW
Pressure: 30.34"   Gusts: NA
Location:  42°N, 88.01°W
Report Text: KORD 221251Z 34005KT 10SM FEW032 06/04 A3034 RMK AO2 SLP277 T00610039
Loading
Personal Weather Stations






























Interactive Weather Map
Tropical Storm Tracking
New forecast layout! Learn more

10-Day Weather Forecast

Advertisements
Track Severe Weather on mobile